sensor_id;sensor_type;location;lat;lon;timestamp;P1;durP1;ratioP1;P2;durP2;ratioP2
18072;SDS011;9161;47.348;9.648;2022-12-31T00:02:56;0.40;;;0.20;;
18072;SDS011;9161;47.348;9.648;2022-12-31T00:07:40;1.17;;;0.10;;
18072;SDS011;9161;47.348;9.648;2022-12-31T00:12:22;0.33;;;0.20;;
18072;SDS011;9161;47.348;9.648;2022-12-31T00:17:06;0.50;;;0.20;;
18072;SDS011;9161;47.348;9.648;2022-12-31T00:22:11;0.63;;;0.30;;
18072;SDS011;9161;47.348;9.648;2022-12-31T00:26:55;0.23;;;0.20;;
18072;SDS011;9161;47.348;9.648;2022-12-31T00:31:39;0.30;;;0.30;;
18072;SDS011;9161;47.348;9.648;2022-12-31T00:36:23;1.40;;;0.70;;
18072;SDS011;9161;47.348;9.648;2022-12-31T00:41:09;0.20;;;0.20;;
18072;SDS011;9161;47.348;9.648;2022-12-31T00:45:54;0.40;;;0.20;;
18072;SDS011;9161;47.348;9.648;2022-12-31T00:50:40;0.20;;;0.20;;
18072;SDS011;9161;47.348;9.648;2022-12-31T00:55:24;0.20;;;0.20;;
18072;SDS011;9161;47.348;9.648;2022-12-31T01:00:10;1.00;;;0.50;;
18072;SDS011;9161;47.348;9.648;2022-12-31T01:04:54;1.07;;;0.40;;
18072;SDS011;9161;47.348;9.648;2022-12-31T01:09:38;0.40;;;0.30;;
18072;SDS011;9161;47.348;9.648;2022-12-31T01:14:21;0.23;;;0.20;;
18072;SDS011;9161;47.348;9.648;2022-12-31T01:19:07;0.77;;;0.50;;
18072;SDS011;9161;47.348;9.648;2022-12-31T01:23:52;0.87;;;0.50;;
18072;SDS011;9161;47.348;9.648;2022-12-31T01:28:36;0.20;;;0.20;;
18072;SDS011;9161;47.348;9.648;2022-12-31T01:33:20;0.27;;;0.20;;
18072;SDS011;9161;47.348;9.648;2022-12-31T01:38:05;0.30;;;0.20;;
18072;SDS011;9161;47.348;9.648;2022-12-31T01:42:52;1.23;;;0.37;;
18072;SDS011;9161;47.348;9.648;2022-12-31T01:47:37;0.37;;;0.20;;
18072;SDS011;9161;47.348;9.648;2022-12-31T01:52:24;0.30;;;0.20;;
18072;SDS011;9161;47.348;9.648;2022-12-31T01:57:12;0.30;;;0.10;;
18072;SDS011;9161;47.348;9.648;2022-12-31T02:01:57;1.90;;;0.20;;
18072;SDS011;9161;47.348;9.648;2022-12-31T02:06:43;0.80;;;0.40;;
18072;SDS011;9161;47.348;9.648;2022-12-31T02:11:31;0.57;;;0.20;;
18072;SDS011;9161;47.348;9.648;2022-12-31T02:16:20;0.33;;;0.20;;
18072;SDS011;9161;47.348;9.648;2022-12-31T02:21:23;0.37;;;0.30;;
18072;SDS011;9161;47.348;9.648;2022-12-31T02:31:37;0.20;;;0.10;;
18072;SDS011;9161;47.348;9.648;2022-12-31T02:36:27;0.20;;;0.20;;
18072;SDS011;9161;47.348;9.648;2022-12-31T02:41:16;0.10;;;0.10;;
18072;SDS011;9161;47.348;9.648;2022-12-31T02:46:16;0.20;;;0.10;;
18072;SDS011;9161;47.348;9.648;2022-12-31T02:51:11;0.10;;;0.10;;
18072;SDS011;9161;47.348;9.648;2022-12-31T02:56:08;0.33;;;0.10;;
18072;SDS011;9161;47.348;9.648;2022-12-31T03:00:58;0.53;;;0.17;;
18072;SDS011;9161;47.348;9.648;2022-12-31T03:06:00;0.20;;;0.10;;
18072;SDS011;9161;47.348;9.648;2022-12-31T03:10:46;0.33;;;0.20;;
18072;SDS011;9161;47.348;9.648;2022-12-31T03:15:31;0.37;;;0.20;;
18072;SDS011;9161;47.348;9.648;2022-12-31T03:20:15;0.20;;;0.10;;
18072;SDS011;9161;47.348;9.648;2022-12-31T03:25:17;0.27;;;0.20;;
18072;SDS011;9161;47.348;9.648;2022-12-31T03:30:18;0.20;;;0.13;;
18072;SDS011;9161;47.348;9.648;2022-12-31T03:35:02;0.40;;;0.10;;
18072;SDS011;9161;47.348;9.648;2022-12-31T03:39:47;0.10;;;0.10;;
18072;SDS011;9161;47.348;9.648;2022-12-31T03:44:30;0.10;;;0.10;;
18072;SDS011;9161;47.348;9.648;2022-12-31T03:49:15;0.20;;;0.20;;
18072;SDS011;9161;47.348;9.648;2022-12-31T03:53:59;0.10;;;0.10;;
18072;SDS011;9161;47.348;9.648;2022-12-31T03:58:42;0.30;;;0.10;;
18072;SDS011;9161;47.348;9.648;2022-12-31T04:03:26;0.10;;;0.10;;
18072;SDS011;9161;47.348;9.648;2022-12-31T04:08:11;0.20;;;0.10;;
18072;SDS011;9161;47.348;9.648;2022-12-31T04:12:54;0.13;;;0.10;;
18072;SDS011;9161;47.348;9.648;2022-12-31T04:17:40;0.10;;;0.10;;
18072;SDS011;9161;47.348;9.648;2022-12-31T04:22:24;0.47;;;0.10;;
18072;SDS011;9161;47.348;9.648;2022-12-31T04:27:09;0.40;;;0.20;;
18072;SDS011;9161;47.348;9.648;2022-12-31T04:31:53;0.10;;;0.10;;
18072;SDS011;9161;47.348;9.648;2022-12-31T04:36:37;1.07;;;0.30;;
18072;SDS011;9161;47.348;9.648;2022-12-31T04:41:20;0.10;;;0.10;;
18072;SDS011;9161;47.348;9.648;2022-12-31T04:46:08;0.17;;;0.10;;
18072;SDS011;9161;47.348;9.648;2022-12-31T04:50:52;0.10;;;0.10;;
18072;SDS011;9161;47.348;9.648;2022-12-31T04:55:36;0.20;;;0.20;;
18072;SDS011;9161;47.348;9.648;2022-12-31T05:00:19;0.50;;;0.30;;
18072;SDS011;9161;47.348;9.648;2022-12-31T05:05:05;0.40;;;0.20;;
18072;SDS011;9161;47.348;9.648;2022-12-31T05:09:49;0.20;;;0.20;;
18072;SDS011;9161;47.348;9.648;2022-12-31T05:14:32;0.60;;;0.20;;
18072;SDS011;9161;47.348;9.648;2022-12-31T05:19:16;0.53;;;0.27;;
18072;SDS011;9161;47.348;9.648;2022-12-31T05:24:01;0.60;;;0.20;;
18072;SDS011;9161;47.348;9.648;2022-12-31T05:28:44;0.10;;;0.10;;
18072;SDS011;9161;47.348;9.648;2022-12-31T05:33:28;0.10;;;0.10;;
18072;SDS011;9161;47.348;9.648;2022-12-31T05:38:11;0.40;;;0.20;;
18072;SDS011;9161;47.348;9.648;2022-12-31T05:42:56;0.40;;;0.20;;
18072;SDS011;9161;47.348;9.648;2022-12-31T05:47:40;0.63;;;0.20;;
18072;SDS011;9161;47.348;9.648;2022-12-31T05:52:24;0.23;;;0.20;;
18072;SDS011;9161;47.348;9.648;2022-12-31T05:57:08;0.50;;;0.47;;
18072;SDS011;9161;47.348;9.648;2022-12-31T06:01:53;0.20;;;0.20;;
18072;SDS011;9161;47.348;9.648;2022-12-31T06:06:36;0.93;;;0.30;;
18072;SDS011;9161;47.348;9.648;2022-12-31T06:11:20;0.93;;;0.17;;
18072;SDS011;9161;47.348;9.648;2022-12-31T06:16:04;0.57;;;0.10;;
18072;SDS011;9161;47.348;9.648;2022-12-31T06:20:49;1.23;;;0.10;;
18072;SDS011;9161;47.348;9.648;2022-12-31T06:25:33;0.10;;;0.10;;
18072;SDS011;9161;47.348;9.648;2022-12-31T06:30:18;0.23;;;0.17;;
18072;SDS011;9161;47.348;9.648;2022-12-31T06:35:01;0.20;;;0.20;;
18072;SDS011;9161;47.348;9.648;2022-12-31T06:39:46;0.20;;;0.20;;
18072;SDS011;9161;47.348;9.648;2022-12-31T06:44:30;0.73;;;0.20;;
18072;SDS011;9161;47.348;9.648;2022-12-31T06:49:14;0.57;;;0.20;;
18072;SDS011;9161;47.348;9.648;2022-12-31T06:53:57;1.27;;;0.20;;
18072;SDS011;9161;47.348;9.648;2022-12-31T06:58:43;1.00;;;0.20;;
18072;SDS011;9161;47.348;9.648;2022-12-31T07:03:28;0.10;;;0.10;;
18072;SDS011;9161;47.348;9.648;2022-12-31T07:08:27;1.03;;;0.30;;
18072;SDS011;9161;47.348;9.648;2022-12-31T07:13:27;1.00;;;0.20;;
18072;SDS011;9161;47.348;9.648;2022-12-31T07:18:31;1.53;;;0.30;;
18072;SDS011;9161;47.348;9.648;2022-12-31T07:23:19;0.90;;;0.30;;
18072;SDS011;9161;47.348;9.648;2022-12-31T07:28:06;0.70;;;0.40;;
18072;SDS011;9161;47.348;9.648;2022-12-31T07:33:02;0.33;;;0.30;;
18072;SDS011;9161;47.348;9.648;2022-12-31T07:38:11;0.30;;;0.30;;
18072;SDS011;9161;47.348;9.648;2022-12-31T07:43:03;2.27;;;0.83;;
18072;SDS011;9161;47.348;9.648;2022-12-31T07:47:55;0.40;;;0.20;;
18072;SDS011;9161;47.348;9.648;2022-12-31T07:52:43;0.87;;;0.30;;
18072;SDS011;9161;47.348;9.648;2022-12-31T07:57:30;1.07;;;0.33;;
18072;SDS011;9161;47.348;9.648;2022-12-31T08:02:22;1.13;;;0.20;;
18072;SDS011;9161;47.348;9.648;2022-12-31T08:07:17;1.03;;;0.20;;
18072;SDS011;9161;47.348;9.648;2022-12-31T08:12:07;0.60;;;0.20;;
18072;SDS011;9161;47.348;9.648;2022-12-31T08:16:53;0.30;;;0.10;;
18072;SDS011;9161;47.348;9.648;2022-12-31T08:21:38;0.30;;;0.10;;
18072;SDS011;9161;47.348;9.648;2022-12-31T08:26:31;0.57;;;0.50;;
18072;SDS011;9161;47.348;9.648;2022-12-31T08:31:19;0.30;;;0.20;;
18072;SDS011;9161;47.348;9.648;2022-12-31T08:36:26;0.43;;;0.20;;
18072;SDS011;9161;47.348;9.648;2022-12-31T08:41:15;0.30;;;0.20;;
18072;SDS011;9161;47.348;9.648;2022-12-31T08:46:05;0.53;;;0.30;;
18072;SDS011;9161;47.348;9.648;2022-12-31T08:50:55;1.10;;;0.30;;
18072;SDS011;9161;47.348;9.648;2022-12-31T08:55:41;0.50;;;0.30;;
18072;SDS011;9161;47.348;9.648;2022-12-31T09:00:26;0.50;;;0.30;;
18072;SDS011;9161;47.348;9.648;2022-12-31T09:05:13;0.67;;;0.33;;
18072;SDS011;9161;47.348;9.648;2022-12-31T09:10:02;0.30;;;0.20;;
18072;SDS011;9161;47.348;9.648;2022-12-31T09:14:58;0.53;;;0.30;;
18072;SDS011;9161;47.348;9.648;2022-12-31T09:19:48;0.47;;;0.30;;
18072;SDS011;9161;47.348;9.648;2022-12-31T09:24:32;1.60;;;0.50;;
18072;SDS011;9161;47.348;9.648;2022-12-31T09:29:20;0.50;;;0.30;;
18072;SDS011;9161;47.348;9.648;2022-12-31T09:34:14;0.77;;;0.40;;
18072;SDS011;9161;47.348;9.648;2022-12-31T09:39:06;0.33;;;0.30;;
18072;SDS011;9161;47.348;9.648;2022-12-31T09:54:22;1.10;;;0.30;;
18072;SDS011;9161;47.348;9.648;2022-12-31T09:59:16;0.50;;;0.30;;
18072;SDS011;9161;47.348;9.648;2022-12-31T10:14:43;2.20;;;1.20;;
18072;SDS011;9161;47.348;9.648;2022-12-31T10:20:00;0.30;;;0.20;;
18072;SDS011;9161;47.348;9.648;2022-12-31T10:30:20;0.47;;;0.40;;
18072;SDS011;9161;47.348;9.648;2022-12-31T10:35:13;0.43;;;0.30;;
18072;SDS011;9161;47.348;9.648;2022-12-31T10:40:14;0.83;;;0.30;;
18072;SDS011;9161;47.348;9.648;2022-12-31T10:45:23;0.80;;;0.50;;
18072;SDS011;9161;47.348;9.648;2022-12-31T10:50:31;0.77;;;0.40;;
18072;SDS011;9161;47.348;9.648;2022-12-31T10:55:55;0.40;;;0.30;;
18072;SDS011;9161;47.348;9.648;2022-12-31T11:00:59;1.70;;;0.40;;
18072;SDS011;9161;47.348;9.648;2022-12-31T11:11:18;1.60;;;0.60;;
18072;SDS011;9161;47.348;9.648;2022-12-31T11:16:22;1.03;;;0.40;;
18072;SDS011;9161;47.348;9.648;2022-12-31T11:21:17;0.40;;;0.30;;
18072;SDS011;9161;47.348;9.648;2022-12-31T11:26:11;0.93;;;0.30;;
18072;SDS011;9161;47.348;9.648;2022-12-31T11:31:10;0.87;;;0.43;;
18072;SDS011;9161;47.348;9.648;2022-12-31T11:36:06;0.80;;;0.50;;
18072;SDS011;9161;47.348;9.648;2022-12-31T11:40:59;2.27;;;0.40;;
18072;SDS011;9161;47.348;9.648;2022-12-31T11:45:52;0.70;;;0.40;;
18072;SDS011;9161;47.348;9.648;2022-12-31T11:50:56;0.53;;;0.40;;
18072;SDS011;9161;47.348;9.648;2022-12-31T11:55:55;2.00;;;0.47;;
18072;SDS011;9161;47.348;9.648;2022-12-31T12:00:45;1.20;;;0.40;;
18072;SDS011;9161;47.348;9.648;2022-12-31T12:05:37;0.87;;;0.30;;
18072;SDS011;9161;47.348;9.648;2022-12-31T12:10:23;0.80;;;0.30;;
18072;SDS011;9161;47.348;9.648;2022-12-31T12:15:17;1.50;;;0.57;;
18072;SDS011;9161;47.348;9.648;2022-12-31T12:20:11;1.30;;;0.40;;
18072;SDS011;9161;47.348;9.648;2022-12-31T12:25:01;4.37;;;1.00;;
18072;SDS011;9161;47.348;9.648;2022-12-31T12:29:46;0.80;;;0.50;;
18072;SDS011;9161;47.348;9.648;2022-12-31T12:34:31;2.57;;;0.70;;
18072;SDS011;9161;47.348;9.648;2022-12-31T12:39:19;0.70;;;0.40;;
18072;SDS011;9161;47.348;9.648;2022-12-31T12:44:05;2.03;;;0.93;;
18072;SDS011;9161;47.348;9.648;2022-12-31T12:48:52;1.43;;;0.50;;
18072;SDS011;9161;47.348;9.648;2022-12-31T12:53:40;1.57;;;0.77;;
18072;SDS011;9161;47.348;9.648;2022-12-31T12:58:39;0.83;;;0.50;;
18072;SDS011;9161;47.348;9.648;2022-12-31T13:09:19;5.15;;;1.45;;
18072;SDS011;9161;47.348;9.648;2022-12-31T13:14:17;2.75;;;1.30;;
18072;SDS011;9161;47.348;9.648;2022-12-31T13:19:10;3.28;;;1.10;;
18072;SDS011;9161;47.348;9.648;2022-12-31T13:24:02;1.75;;;1.00;;
18072;SDS011;9161;47.348;9.648;2022-12-31T13:28:52;2.45;;;1.40;;
18072;SDS011;9161;47.348;9.648;2022-12-31T13:33:39;2.67;;;1.20;;
18072;SDS011;9161;47.348;9.648;2022-12-31T13:38:26;2.60;;;0.83;;
18072;SDS011;9161;47.348;9.648;2022-12-31T13:43:14;2.47;;;1.10;;
18072;SDS011;9161;47.348;9.648;2022-12-31T13:48:04;6.27;;;1.20;;
18072;SDS011;9161;47.348;9.648;2022-12-31T13:52:55;3.00;;;1.00;;
18072;SDS011;9161;47.348;9.648;2022-12-31T13:57:42;2.50;;;0.90;;
18072;SDS011;9161;47.348;9.648;2022-12-31T14:02:30;2.70;;;1.00;;
18072;SDS011;9161;47.348;9.648;2022-12-31T14:07:25;1.90;;;0.90;;
18072;SDS011;9161;47.348;9.648;2022-12-31T14:12:26;1.77;;;1.00;;
18072;SDS011;9161;47.348;9.648;2022-12-31T14:17:18;2.23;;;1.10;;
18072;SDS011;9161;47.348;9.648;2022-12-31T14:22:08;4.07;;;1.40;;
18072;SDS011;9161;47.348;9.648;2022-12-31T14:27:01;1.60;;;1.50;;
18072;SDS011;9161;47.348;9.648;2022-12-31T14:31:59;2.57;;;1.53;;
18072;SDS011;9161;47.348;9.648;2022-12-31T14:37:06;2.50;;;1.20;;
18072;SDS011;9161;47.348;9.648;2022-12-31T14:41:57;2.57;;;2.10;;
18072;SDS011;9161;47.348;9.648;2022-12-31T14:46:50;3.23;;;2.00;;
18072;SDS011;9161;47.348;9.648;2022-12-31T14:51:48;4.07;;;2.03;;
18072;SDS011;9161;47.348;9.648;2022-12-31T14:56:36;2.83;;;1.60;;
18072;SDS011;9161;47.348;9.648;2022-12-31T15:01:23;2.20;;;1.37;;
18072;SDS011;9161;47.348;9.648;2022-12-31T15:06:14;6.07;;;1.70;;
18072;SDS011;9161;47.348;9.648;2022-12-31T15:11:17;4.87;;;1.57;;
18072;SDS011;9161;47.348;9.648;2022-12-31T15:16:18;4.47;;;1.50;;
18072;SDS011;9161;47.348;9.648;2022-12-31T15:21:19;6.40;;;3.10;;
18072;SDS011;9161;47.348;9.648;2022-12-31T15:26:18;7.10;;;3.33;;
18072;SDS011;9161;47.348;9.648;2022-12-31T15:31:05;10.20;;;2.70;;
18072;SDS011;9161;47.348;9.648;2022-12-31T15:36:09;5.60;;;2.80;;
18072;SDS011;9161;47.348;9.648;2022-12-31T15:40:58;8.37;;;2.93;;
18072;SDS011;9161;47.348;9.648;2022-12-31T15:45:43;5.93;;;2.47;;
18072;SDS011;9161;47.348;9.648;2022-12-31T15:50:28;7.53;;;2.60;;
18072;SDS011;9161;47.348;9.648;2022-12-31T15:55:16;5.27;;;2.80;;
18072;SDS011;9161;47.348;9.648;2022-12-31T16:00:14;6.87;;;3.50;;
18072;SDS011;9161;47.348;9.648;2022-12-31T16:04:59;10.30;;;3.83;;
18072;SDS011;9161;47.348;9.648;2022-12-31T16:09:45;15.60;;;7.37;;
18072;SDS011;9161;47.348;9.648;2022-12-31T16:14:32;13.03;;;5.53;;
18072;SDS011;9161;47.348;9.648;2022-12-31T16:19:27;10.30;;;5.30;;
18072;SDS011;9161;47.348;9.648;2022-12-31T16:24:22;11.83;;;6.20;;
18072;SDS011;9161;47.348;9.648;2022-12-31T16:29:10;11.23;;;6.00;;
18072;SDS011;9161;47.348;9.648;2022-12-31T16:34:09;19.80;;;8.23;;
18072;SDS011;9161;47.348;9.648;2022-12-31T16:39:00;20.57;;;9.20;;
18072;SDS011;9161;47.348;9.648;2022-12-31T16:44:04;33.10;;;15.90;;
18072;SDS011;9161;47.348;9.648;2022-12-31T16:48:56;28.87;;;13.77;;
18072;SDS011;9161;47.348;9.648;2022-12-31T16:53:42;25.00;;;13.43;;
18072;SDS011;9161;47.348;9.648;2022-12-31T16:58:29;30.77;;;15.23;;
18072;SDS011;9161;47.348;9.648;2022-12-31T17:03:16;34.13;;;15.83;;
18072;SDS011;9161;47.348;9.648;2022-12-31T17:08:13;30.67;;;14.70;;
18072;SDS011;9161;47.348;9.648;2022-12-31T17:13:08;28.53;;;15.50;;
18072;SDS011;9161;47.348;9.648;2022-12-31T17:18:13;38.57;;;18.70;;
18072;SDS011;9161;47.348;9.648;2022-12-31T17:23:02;39.80;;;20.23;;
18072;SDS011;9161;47.348;9.648;2022-12-31T17:28:00;40.43;;;20.33;;
18072;SDS011;9161;47.348;9.648;2022-12-31T17:32:51;39.00;;;20.93;;
18072;SDS011;9161;47.348;9.648;2022-12-31T17:37:48;39.43;;;21.43;;
18072;SDS011;9161;47.348;9.648;2022-12-31T17:42:39;42.93;;;22.53;;
18072;SDS011;9161;47.348;9.648;2022-12-31T17:47:34;42.70;;;22.27;;
18072;SDS011;9161;47.348;9.648;2022-12-31T17:52:25;47.27;;;24.33;;
18072;SDS011;9161;47.348;9.648;2022-12-31T18:02:08;48.40;;;25.03;;
18072;SDS011;9161;47.348;9.648;2022-12-31T18:06:54;48.07;;;25.80;;
18072;SDS011;9161;47.348;9.648;2022-12-31T18:11:40;44.00;;;25.57;;
18072;SDS011;9161;47.348;9.648;2022-12-31T18:16:30;47.70;;;26.20;;
18072;SDS011;9161;47.348;9.648;2022-12-31T18:21:21;54.00;;;28.73;;
18072;SDS011;9161;47.348;9.648;2022-12-31T18:26:09;57.53;;;32.33;;
18072;SDS011;9161;47.348;9.648;2022-12-31T18:30:56;58.37;;;31.17;;
18072;SDS011;9161;47.348;9.648;2022-12-31T18:35:41;60.27;;;32.80;;
18072;SDS011;9161;47.348;9.648;2022-12-31T18:40:47;60.53;;;33.77;;
18072;SDS011;9161;47.348;9.648;2022-12-31T18:45:35;58.07;;;32.90;;
18072;SDS011;9161;47.348;9.648;2022-12-31T18:50:19;60.87;;;31.83;;
18072;SDS011;9161;47.348;9.648;2022-12-31T18:55:09;57.63;;;30.33;;
18072;SDS011;9161;47.348;9.648;2022-12-31T19:00:05;58.10;;;29.57;;
18072;SDS011;9161;47.348;9.648;2022-12-31T19:04:51;66.37;;;33.37;;
18072;SDS011;9161;47.348;9.648;2022-12-31T19:09:35;56.23;;;29.77;;
18072;SDS011;9161;47.348;9.648;2022-12-31T19:14:30;81.47;;;37.13;;
18072;SDS011;9161;47.348;9.648;2022-12-31T19:19:15;164.73;;;73.97;;
18072;SDS011;9161;47.348;9.648;2022-12-31T19:23:59;121.73;;;62.43;;
18072;SDS011;9161;47.348;9.648;2022-12-31T19:28:43;106.90;;;54.80;;
18072;SDS011;9161;47.348;9.648;2022-12-31T19:33:30;77.50;;;40.53;;
18072;SDS011;9161;47.348;9.648;2022-12-31T19:38:15;58.97;;;34.17;;
18072;SDS011;9161;47.348;9.648;2022-12-31T19:43:01;65.77;;;34.50;;
18072;SDS011;9161;47.348;9.648;2022-12-31T19:47:45;67.07;;;34.70;;
18072;SDS011;9161;47.348;9.648;2022-12-31T19:52:30;63.50;;;34.17;;
18072;SDS011;9161;47.348;9.648;2022-12-31T19:57:13;70.73;;;37.40;;
18072;SDS011;9161;47.348;9.648;2022-12-31T20:01:57;67.03;;;35.43;;
18072;SDS011;9161;47.348;9.648;2022-12-31T20:06:44;81.30;;;42.00;;
18072;SDS011;9161;47.348;9.648;2022-12-31T20:11:52;81.67;;;44.27;;
18072;SDS011;9161;47.348;9.648;2022-12-31T20:16:38;86.70;;;43.60;;
18072;SDS011;9161;47.348;9.648;2022-12-31T20:22:01;17.57;;;9.63;;
18072;SDS011;9161;47.348;9.648;2022-12-31T20:26:58;19.27;;;9.60;;
18072;SDS011;9161;47.348;9.648;2022-12-31T20:32:03;4.77;;;2.93;;
18072;SDS011;9161;47.348;9.648;2022-12-31T20:36:55;22.13;;;6.40;;
18072;SDS011;9161;47.348;9.648;2022-12-31T20:41:39;2.77;;;1.80;;
18072;SDS011;9161;47.348;9.648;2022-12-31T20:46:28;4.33;;;2.67;;
18072;SDS011;9161;47.348;9.648;2022-12-31T20:51:43;4.13;;;2.00;;
18072;SDS011;9161;47.348;9.648;2022-12-31T20:57:10;7.33;;;6.60;;
18072;SDS011;9161;47.348;9.648;2022-12-31T21:07:31;2.00;;;1.27;;
18072;SDS011;9161;47.348;9.648;2022-12-31T21:12:34;2.53;;;1.50;;
18072;SDS011;9161;47.348;9.648;2022-12-31T21:17:52;1.37;;;1.20;;
18072;SDS011;9161;47.348;9.648;2022-12-31T21:23:49;2.20;;;1.40;;
18072;SDS011;9161;47.348;9.648;2022-12-31T21:28:43;2.43;;;1.10;;
18072;SDS011;9161;47.348;9.648;2022-12-31T21:34:17;1.87;;;1.30;;
18072;SDS011;9161;47.348;9.648;2022-12-31T21:40:21;1.47;;;0.90;;
18072;SDS011;9161;47.348;9.648;2022-12-31T21:45:57;3.30;;;1.53;;
18072;SDS011;9161;47.348;9.648;2022-12-31T21:56:31;3.93;;;1.10;;
18072;SDS011;9161;47.348;9.648;2022-12-31T22:01:35;1.23;;;0.90;;
18072;SDS011;9161;47.348;9.648;2022-12-31T22:12:26;1.83;;;1.17;;
18072;SDS011;9161;47.348;9.648;2022-12-31T22:17:19;1.53;;;0.83;;
18072;SDS011;9161;47.348;9.648;2022-12-31T22:22:33;1.67;;;0.90;;
18072;SDS011;9161;47.348;9.648;2022-12-31T22:34:07;1.63;;;0.90;;
18072;SDS011;9161;47.348;9.648;2022-12-31T22:39:41;2.80;;;1.30;;
18072;SDS011;9161;47.348;9.648;2022-12-31T22:45:21;1.93;;;1.10;;
18072;SDS011;9161;47.348;9.648;2022-12-31T22:50:23;3.10;;;1.07;;
18072;SDS011;9161;47.348;9.648;2022-12-31T22:55:49;1.90;;;1.53;;
18072;SDS011;9161;47.348;9.648;2022-12-31T23:06:10;10.97;;;6.70;;
18072;SDS011;9161;47.348;9.648;2022-12-31T23:10:56;6.77;;;2.77;;
18072;SDS011;9161;47.348;9.648;2022-12-31T23:15:46;6.67;;;4.27;;
18072;SDS011;9161;47.348;9.648;2022-12-31T23:20:47;5.87;;;2.73;;
18072;SDS011;9161;47.348;9.648;2022-12-31T23:25:58;8.13;;;4.40;;
18072;SDS011;9161;47.348;9.648;2022-12-31T23:30:48;5.73;;;2.40;;
18072;SDS011;9161;47.348;9.648;2022-12-31T23:35:35;45.60;;;24.93;;
18072;SDS011;9161;47.348;9.648;2022-12-31T23:58:40;127.17;;;68.57;;
